Time;durP1;ratioP1;P1;durP2;ratioP2;P2;SDS_P1;SDS_P2;PMS_P1;PMS_P2;Temp;Humidity;BMP_temperature;BMP_pressure;BME280_temperature;BME280_humidity;BME280_pressure;Samples;Min_cycle;Max_cycle;Signal;HPM_P1;HPM_P2
2022/05/25 00:01:19;;;;;;;35.97;20.85;;;;;;;;;;7331904;19;154023;-18
2022/05/25 00:03:51;;;;;;;42.65;22.95;;;;;;;;;;7332123;19;153937;-18
2022/05/25 00:06:22;;;;;;;29.45;19.15;;;;;;;;;;7331516;19;162043;-18
2022/05/25 00:08:56;;;;;;;42.15;24.40;;;;;;;;;;7331451;19;162471;-18
2022/05/25 00:11:28;;;;;;;46.08;25.55;;;;;;;;;;7329835;19;154049;-18
2022/05/25 00:13:59;;;;;;;40.40;23.17;;;;;;;;;;7330811;19;153858;-18
2022/05/25 00:16:31;;;;;;;48.42;26.55;;;;;;;;;;7331703;19;162106;-18
2022/05/25 00:21:46;;;;;;;36.53;21.35;;;;;;;;;;7334762;19;153993;-18
2022/05/25 00:24:20;;;;;;;42.25;25.88;;;;;;;;;;7334331;19;153626;-18
2022/05/25 00:26:51;;;;;;;46.10;24.63;;;;;;;;;;7331294;19;161993;-18
2022/05/25 00:29:23;;;;;;;37.58;22.98;;;;;;;;;;7330371;19;162780;-17
2022/05/25 00:31:54;;;;;;;34.75;20.35;;;;;;;;;;7327691;19;154011;-18
2022/05/25 00:34:26;;;;;;;41.17;24.40;;;;;;;;;;7331058;19;154543;-18
2022/05/25 00:36:57;;;;;;;42.53;24.88;;;;;;;;;;7330532;19;161891;-18
2022/05/25 00:39:31;;;;;;;33.72;20.80;;;;;;;;;;7330761;19;162631;-17
2022/05/25 00:42:06;;;;;;;38.35;22.90;;;;;;;;;;7330864;19;154237;-18
2022/05/25 00:44:37;;;;;;;42.28;24.73;;;;;;;;;;7330943;19;153745;-18
2022/05/25 00:47:11;;;;;;;34.47;20.90;;;;;;;;;;7330630;19;161862;-18
2022/05/25 00:49:42;;;;;;;38.78;23.05;;;;;;;;;;7329572;19;162559;-18
2022/05/25 00:52:16;;;;;;;38.50;23.27;;;;;;;;;;7328178;19;153992;-18
2022/05/25 00:54:52;;;;;;;36.00;21.52;;;;;;;;;;7330714;19;153689;-18
2022/05/25 00:57:27;;;;;;;40.42;23.48;;;;;;;;;;7329225;19;162127;-18
2022/05/25 01:00:04;;;;;;;36.53;21.92;;;;;;;;;;7330268;19;162465;-19
2022/05/25 01:02:38;;;;;;;38.70;22.73;;;;;;;;;;7330815;19;154354;-19
2022/05/25 01:05:11;;;;;;;38.60;22.13;;;;;;;;;;7329833;19;153509;-18
2022/05/25 01:07:59;;;;;;;33.97;21.02;;;;;;;;;;7333539;19;162071;-18
2022/05/25 01:10:47;;;;;;;13.57;8.55;;;;;;;;;;7326617;19;162947;-18
2022/05/25 01:13:27;;;;;;;13.20;7.88;;;;;;;;;;7329598;19;154151;-18
2022/05/25 01:16:07;;;;;;;19.42;10.20;;;;;;;;;;7331343;19;153535;-18
2022/05/25 01:18:44;;;;;;;18.20;11.25;;;;;;;;;;7330645;19;161941;-18
2022/05/25 01:21:22;;;;;;;20.60;11.85;;;;;;;;;;7329649;19;162745;-18
2022/05/25 01:24:05;;;;;;;18.50;12.23;;;;;;;;;;7330028;19;154128;-18
2022/05/25 01:27:13;;;;;;;21.17;12.73;;;;;;;;;;7331131;19;153605;-18
2022/05/25 01:30:05;;;;;;;19.70;12.32;;;;;;;;;;7329294;19;161821;-18
2022/05/25 01:32:57;;;;;;;23.35;12.10;;;;;;;;;;7328126;19;162360;-18
2022/05/25 01:35:37;;;;;;;19.55;10.95;;;;;;;;;;7330399;19;154096;-18
2022/05/25 01:38:15;;;;;;;18.17;11.43;;;;;;;;;;7330923;19;153754;-18
2022/05/25 01:40:51;;;;;;;15.88;10.40;;;;;;;;;;7330535;19;161910;-21
2022/05/25 01:43:27;;;;;;;20.38;11.40;;;;;;;;;;7330266;19;163029;-19
2022/05/25 01:46:04;;;;;;;21.23;10.93;;;;;;;;;;7330817;19;154069;-18
2022/05/25 01:48:38;;;;;;;19.48;11.85;;;;;;;;;;7330571;19;153627;-24
2022/05/25 01:51:13;;;;;;;17.77;11.55;;;;;;;;;;7329418;19;161759;-18
2022/05/25 01:53:47;;;;;;;24.08;11.88;;;;;;;;;;7330009;19;162421;-17
2022/05/25 01:56:22;;;;;;;16.30;10.75;;;;;;;;;;7330420;19;154031;-17
2022/05/25 01:58:57;;;;;;;16.00;10.02;;;;;;;;;;7330154;19;153659;-17
2022/05/25 02:01:31;;;;;;;18.67;11.13;;;;;;;;;;7326397;19;163042;-17
2022/05/25 02:07:07;;;;;;;14.88;9.63;;;;;;;;;;7329872;19;154017;-23
2022/05/25 02:10:04;;;;;;;17.42;10.23;;;;;;;;;;7329496;19;153607;-18
2022/05/25 02:12:49;;;;;;;17.00;10.10;;;;;;;;;;7327288;19;162002;-18
2022/05/25 02:15:30;;;;;;;16.58;10.30;;;;;;;;;;7329222;19;162717;-18
2022/05/25 02:18:09;;;;;;;15.75;9.40;;;;;;;;;;7328583;19;153893;-18
2022/05/25 02:20:46;;;;;;;15.85;10.60;;;;;;;;;;7329387;19;153673;-17
2022/05/25 02:23:22;;;;;;;16.95;9.30;;;;;;;;;;7330194;19;161985;-17
2022/05/25 02:25:59;;;;;;;14.90;9.98;;;;;;;;;;7328868;19;162546;-18
2022/05/25 02:28:35;;;;;;;14.15;9.35;;;;;;;;;;7329166;19;154302;-17
2022/05/25 02:31:11;;;;;;;17.00;10.35;;;;;;;;;;7328991;19;153540;-18
2022/05/25 02:33:48;;;;;;;16.25;10.15;;;;;;;;;;7328949;19;162118;-18
2022/05/25 02:36:21;;;;;;;16.55;10.18;;;;;;;;;;7328742;19;162481;-18
2022/05/25 02:38:52;;;;;;;13.80;9.73;;;;;;;;;;7327689;19;154064;-19
2022/05/25 02:41:30;;;;;;;16.13;9.75;;;;;;;;;;7328827;19;153762;-19
2022/05/25 02:44:02;;;;;;;14.88;9.45;;;;;;;;;;7328636;19;161830;-19
2022/05/25 02:46:33;;;;;;;12.90;8.90;;;;;;;;;;7328268;19;162537;-18
2022/05/25 02:49:07;;;;;;;14.20;9.13;;;;;;;;;;7328479;19;154138;-18
2022/05/25 02:51:39;;;;;;;12.55;8.98;;;;;;;;;;7328077;19;153523;-19
2022/05/25 02:54:11;;;;;;;14.65;8.18;;;;;;;;;;7328038;19;161729;-19
2022/05/25 02:56:43;;;;;;;;;;;;;;;;;;7327736;19;162369;-18
2022/05/25 02:59:15;;;;;;;13.10;8.18;;;;;;;;;;7328773;19;154332;-19
2022/05/25 03:01:47;;;;;;;12.48;8.40;;;;;;;;;;7328340;19;153600;-19
2022/05/25 03:04:22;;;;;;;13.43;9.23;;;;;;;;;;7327700;19;161774;-17
2022/05/25 03:06:54;;;;;;;14.80;8.90;;;;;;;;;;7327692;19;162412;-17
2022/05/25 03:09:25;;;;;;;13.20;7.97;;;;;;;;;;7328075;19;154029;-17
2022/05/25 03:11:56;;;;;;;12.30;8.55;;;;;;;;;;7324988;19;153496;-17
2022/05/25 03:14:28;;;;;;;14.35;8.38;;;;;;;;;;7332870;19;162041;-17
2022/05/25 03:17:05;;;;;;;12.95;8.40;;;;;;;;;;7334377;19;162268;-17
2022/05/25 03:19:39;;;;;;;13.82;8.70;;;;;;;;;;7334664;19;154075;-16
2022/05/25 03:22:10;;;;;;;13.90;8.45;;;;;;;;;;7334760;19;153560;-17
2022/05/25 03:24:42;;;;;;;11.40;7.75;;;;;;;;;;7334162;19;161887;-16
2022/05/25 03:27:13;;;;;;;12.50;8.30;;;;;;;;;;7333110;19;162428;-17
2022/05/25 03:29:44;;;;;;;12.15;8.00;;;;;;;;;;7334355;19;154104;-22
2022/05/25 03:32:16;;;;;;;12.70;7.88;;;;;;;;;;7333866;19;153516;-17
2022/05/25 03:34:52;;;;;;;14.82;9.00;;;;;;;;;;7334118;19;161868;-18
2022/05/25 03:37:24;;;;;;;14.95;8.63;;;;;;;;;;7334002;19;162287;-17
2022/05/25 03:39:55;;;;;;;12.88;7.93;;;;;;;;;;7334154;19;154067;-17
2022/05/25 03:42:27;;;;;;;12.02;7.38;;;;;;;;;;7334129;19;153558;-16
2022/05/25 03:44:58;;;;;;;11.02;7.55;;;;;;;;;;7333820;19;162088;-17
2022/05/25 03:47:29;;;;;;;10.63;7.88;;;;;;;;;;7333528;19;162482;-16
2022/05/25 03:50:03;;;;;;;12.45;7.93;;;;;;;;;;7333001;19;154016;-17
2022/05/25 03:52:35;;;;;;;11.52;7.20;;;;;;;;;;7332111;19;153824;-18
2022/05/25 03:55:07;;;;;;;11.48;7.70;;;;;;;;;;7333414;19;161880;-19
2022/05/25 03:57:38;;;;;;;11.23;7.20;;;;;;;;;;7333323;19;162384;-18
2022/05/25 04:00:11;;;;;;;10.25;7.38;;;;;;;;;;7333529;19;154091;-19
2022/05/25 04:02:43;;;;;;;11.13;7.35;;;;;;;;;;7333451;19;153600;-18
2022/05/25 04:05:18;;;;;;;11.25;7.68;;;;;;;;;;7333014;19;161901;-18
2022/05/25 04:07:51;;;;;;;9.13;6.63;;;;;;;;;;7332781;19;162865;-18
2022/05/25 04:10:23;;;;;;;11.45;7.20;;;;;;;;;;7332172;19;154641;-19
2022/05/25 04:12:54;;;;;;;9.05;6.72;;;;;;;;;;7332458;19;153814;-19
2022/05/25 04:15:30;;;;;;;11.30;7.00;;;;;;;;;;7332899;19;161671;-19
2022/05/25 04:18:01;;;;;;;12.80;7.97;;;;;;;;;;7335993;19;162087;-19
2022/05/25 04:20:35;;;;;;;8.20;6.55;;;;;;;;;;7332964;19;154133;-18
2022/05/25 04:23:11;;;;;;;9.88;6.68;;;;;;;;;;7333002;19;153536;-18
2022/05/25 04:25:44;;;;;;;8.65;6.18;;;;;;;;;;7331068;19;161869;-18
2022/05/25 04:28:15;;;;;;;9.55;6.40;;;;;;;;;;7333921;19;162463;-18
2022/05/25 04:30:46;;;;;;;9.68;6.38;;;;;;;;;;7332955;19;154726;-18
2022/05/25 04:33:18;;;;;;;10.07;6.57;;;;;;;;;;7331716;19;153590;-18
2022/05/25 04:35:52;;;;;;;9.50;6.30;;;;;;;;;;7332375;19;161700;-22
2022/05/25 04:38:24;;;;;;;12.65;7.00;;;;;;;;;;7332218;19;162387;-23
2022/05/25 04:40:55;;;;;;;9.77;6.82;;;;;;;;;;7332499;19;154104;-19
2022/05/25 04:43:29;;;;;;;10.80;6.32;;;;;;;;;;7332293;19;153600;-19
2022/05/25 04:46:03;;;;;;;10.00;6.45;;;;;;;;;;7331727;19;161682;-18
2022/05/25 04:48:34;;;;;;;9.40;6.32;;;;;;;;;;7331887;19;162282;-18
2022/05/25 04:51:11;;;;;;;9.98;6.03;;;;;;;;;;7332305;19;154019;-18
2022/05/25 04:53:43;;;;;;;8.43;5.65;;;;;;;;;;7330871;19;153581;-18
2022/05/25 04:58:58;;;;;;;9.55;6.20;;;;;;;;;;7330532;19;162823;-18
2022/05/25 05:01:32;;;;;;;8.90;6.53;;;;;;;;;;7332039;19;153767;-18
2022/05/25 05:04:03;;;;;;;8.32;6.13;;;;;;;;;;7331831;19;153736;-18
2022/05/25 05:06:37;;;;;;;10.93;6.53;;;;;;;;;;7331344;19;161795;-18
2022/05/25 05:09:09;;;;;;;9.63;5.95;;;;;;;;;;7329933;19;162155;-18
2022/05/25 05:11:40;;;;;;;8.43;5.88;;;;;;;;;;7327773;19;154424;-18
2022/05/25 05:14:11;;;;;;;9.80;6.03;;;;;;;;;;7331796;19;153449;-18
2022/05/25 05:16:43;;;;;;;8.52;5.93;;;;;;;;;;7334490;19;161767;-18
2022/05/25 05:19:25;;;;;;;7.57;5.47;;;;;;;;;;7333208;19;162971;-18
2022/05/25 05:22:15;;;;;;;9.30;5.82;;;;;;;;;;7332828;19;154101;-18
2022/05/25 05:24:46;;;;;;;9.02;5.60;;;;;;;;;;7334721;19;153585;-18
2022/05/25 05:27:17;;;;;;;9.38;5.72;;;;;;;;;;7330548;19;161858;-18
2022/05/25 05:29:49;;;;;;;9.15;5.38;;;;;;;;;;7330740;19;162398;-19
2022/05/25 05:32:20;;;;;;;8.07;4.75;;;;;;;;;;7331038;19;154192;-18
2022/05/25 05:34:52;;;;;;;7.05;4.45;;;;;;;;;;7329007;19;153561;-18
2022/05/25 05:37:31;;;;;;;4.53;3.28;;;;;;;;;;7326486;19;161888;-18
2022/05/25 05:40:04;;;;;;;5.43;3.05;;;;;;;;;;7330337;19;162377;-17
2022/05/25 05:42:39;;;;;;;6.25;2.45;;;;;;;;;;7330598;19;154014;-18
2022/05/25 05:45:14;;;;;;;5.22;2.15;;;;;;;;;;7330567;19;153890;-19
2022/05/25 05:47:50;;;;;;;3.08;2.10;;;;;;;;;;7329817;19;161796;-17
2022/05/25 05:50:22;;;;;;;4.32;1.83;;;;;;;;;;7329695;19;162597;-17
2022/05/25 05:52:56;;;;;;;5.00;1.92;;;;;;;;;;7328942;19;154147;-17
2022/05/25 05:55:27;;;;;;;5.47;1.98;;;;;;;;;;7327270;19;153530;-17
2022/05/25 05:57:59;;;;;;;3.15;2.17;;;;;;;;;;7329442;19;161990;-18
2022/05/25 06:00:30;;;;;;;6.57;2.33;;;;;;;;;;7328730;19;162447;-18
2022/05/25 06:03:02;;;;;;;2.47;1.98;;;;;;;;;;7329698;19;154120;-17
2022/05/25 06:05:34;;;;;;;2.17;1.77;;;;;;;;;;7329784;19;153683;-17
2022/05/25 06:08:14;;;;;;;2.92;1.90;;;;;;;;;;7329368;19;162056;-17
2022/05/25 06:10:45;;;;;;;3.47;1.63;;;;;;;;;;7327719;19;162604;-17
2022/05/25 06:13:17;;;;;;;2.10;1.70;;;;;;;;;;7329373;19;154103;-17
2022/05/25 06:21:18;;;;;;;4.40;1.95;;;;;;;;;;7328653;19;162526;-17
2022/05/25 06:23:53;;;;;;;6.10;1.90;;;;;;;;;;7333462;19;154087;-17
2022/05/25 06:26:27;;;;;;;3.47;1.75;;;;;;;;;;7328973;19;153775;-17
2022/05/25 06:28:58;;;;;;;4.35;1.92;;;;;;;;;;7328642;19;162719;-17
2022/05/25 06:31:31;;;;;;;3.20;1.70;;;;;;;;;;7328684;19;162640;-17
2022/05/25 06:34:02;;;;;;;5.07;1.52;;;;;;;;;;7329742;19;154164;-18
2022/05/25 06:36:33;;;;;;;1.85;1.52;;;;;;;;;;7328741;19;153598;-17
2022/05/25 06:39:07;;;;;;;4.50;1.77;;;;;;;;;;7327237;19;161895;-17
2022/05/25 06:41:38;;;;;;;2.75;1.42;;;;;;;;;;7328467;19;162386;-17
2022/05/25 06:44:10;;;;;;;2.83;1.92;;;;;;;;;;7328363;19;153991;-17
2022/05/25 06:46:41;;;;;;;3.05;1.95;;;;;;;;;;7328392;19;153527;-18
2022/05/25 06:49:13;;;;;;;2.97;1.45;;;;;;;;;;7332767;19;161908;-17
2022/05/25 06:51:44;;;;;;;3.67;1.70;;;;;;;;;;7334550;19;162597;-17
2022/05/25 06:54:20;;;;;;;5.40;1.77;;;;;;;;;;7335107;19;154133;-17
2022/05/25 06:56:52;;;;;;;3.45;2.00;;;;;;;;;;7335211;19;153505;-17
2022/05/25 06:59:26;;;;;;;2.45;1.40;;;;;;;;;;7334540;19;161850;-17
2022/05/25 07:01:57;;;;;;;2.30;1.60;;;;;;;;;;7334836;19;162497;-17
2022/05/25 07:04:28;;;;;;;4.95;1.52;;;;;;;;;;7335083;19;154062;-17
2022/05/25 07:07:04;;;;;;;3.25;1.70;;;;;;;;;;7334757;19;153610;-17
2022/05/25 07:09:39;;;;;;;2.75;1.60;;;;;;;;;;7333975;19;161981;-17
2022/05/25 07:12:11;;;;;;;2.92;1.60;;;;;;;;;;7334006;19;162849;-18
2022/05/25 07:14:42;;;;;;;5.60;1.58;;;;;;;;;;7334139;19;154161;-18
2022/05/25 07:17:14;;;;;;;4.47;1.60;;;;;;;;;;7334263;19;153607;-18
2022/05/25 07:19:45;;;;;;;3.00;1.42;;;;;;;;;;7334256;19;162032;-19
2022/05/25 07:22:16;;;;;;;4.82;1.45;;;;;;;;;;7332936;19;162884;-18
2022/05/25 07:24:52;;;;;;;6.07;1.85;;;;;;;;;;7334391;19;154126;-18
2022/05/25 07:27:23;;;;;;;5.25;1.58;;;;;;;;;;7334330;19;153616;-18
2022/05/25 07:29:55;;;;;;;5.05;1.75;;;;;;;;;;7332811;19;161890;-20
2022/05/25 07:32:27;;;;;;;5.35;1.65;;;;;;;;;;7333605;19;162497;-19
2022/05/25 07:35:02;;;;;;;3.03;1.67;;;;;;;;;;7333756;19;154184;-19
2022/05/25 07:37:38;;;;;;;2.70;1.42;;;;;;;;;;7334098;19;153490;-21
2022/05/25 07:40:18;;;;;;;3.90;1.88;;;;;;;;;;7333796;19;161806;-19
2022/05/25 07:42:55;;;;;;;3.85;1.67;;;;;;;;;;7333513;19;162357;-19
2022/05/25 07:45:27;;;;;;;2.50;1.60;;;;;;;;;;7333800;19;154094;-20
2022/05/25 07:47:58;;;;;;;3.03;1.52;;;;;;;;;;7333739;19;153673;-19
2022/05/25 07:50:30;;;;;;;2.28;1.50;;;;;;;;;;7333413;19;161998;-19
2022/05/25 07:53:03;;;;;;;3.05;1.50;;;;;;;;;;7333268;19;162542;-19
2022/05/25 07:55:37;;;;;;;2.45;1.40;;;;;;;;;;7332572;19;154082;-19
2022/05/25 07:58:08;;;;;;;2.90;1.45;;;;;;;;;;7333431;19;153581;-18
2022/05/25 08:00:40;;;;;;;2.03;1.50;;;;;;;;;;7329564;19;161805;-19
2022/05/25 08:05:59;;;;;;;3.65;1.30;;;;;;;;;;7332532;19;154237;-18
2022/05/25 08:08:30;;;;;;;2.13;1.10;;;;;;;;;;7331697;19;153542;-18
2022/05/25 08:11:07;;;;;;;3.67;1.38;;;;;;;;;;7331339;19;162113;-19
2022/05/25 08:13:39;;;;;;;3.53;1.50;;;;;;;;;;7332474;19;162492;-18
2022/05/25 08:16:12;;;;;;;3.38;1.35;;;;;;;;;;7330318;19;154091;-18
2022/05/25 08:18:43;;;;;;;4.03;1.40;;;;;;;;;;7331570;19;154407;-19
2022/05/25 08:21:15;;;;;;;2.10;1.52;;;;;;;;;;7331971;19;162043;-19
2022/05/25 08:23:51;;;;;;;1.45;1.02;;;;;;;;;;7336684;19;162506;-20
2022/05/25 08:26:25;;;;;;;2.08;1.15;;;;;;;;;;7332587;19;154133;-18
2022/05/25 08:28:56;;;;;;;3.63;1.35;;;;;;;;;;7332821;19;153709;-19
2022/05/25 08:31:28;;;;;;;2.95;1.30;;;;;;;;;;7331849;19;161811;-18
2022/05/25 08:33:59;;;;;;;1.95;1.17;;;;;;;;;;7331780;19;162645;-19
2022/05/25 08:36:30;;;;;;;3.70;1.20;;;;;;;;;;7330911;19;154328;-19
2022/05/25 08:39:02;;;;;;;1.65;1.00;;;;;;;;;;7332070;19;153546;-19
2022/05/25 08:41:39;;;;;;;1.00;0.93;;;;;;;;;;7330538;19;162233;-19
2022/05/25 08:44:11;;;;;;;2.45;1.30;;;;;;;;;;7331920;19;162319;-19
2022/05/25 08:46:43;;;;;;;1.25;1.15;;;;;;;;;;7332400;19;154313;-19
2022/05/25 08:49:18;;;;;;;2.42;1.40;;;;;;;;;;7332072;19;153562;-19
2022/05/25 08:51:52;;;;;;;5.15;1.73;;;;;;;;;;7331580;19;162293;-19
2022/05/25 08:54:25;;;;;;;3.05;1.42;;;;;;;;;;7331515;19;162415;-19
2022/05/25 08:57:04;;;;;;;3.22;1.17;;;;;;;;;;7330431;19;154205;-19
2022/05/25 08:59:42;;;;;;;1.73;1.10;;;;;;;;;;7331851;19;153750;-19
2022/05/25 09:02:21;;;;;;;3.70;1.48;;;;;;;;;;7331157;19;162511;-19
2022/05/25 09:04:58;;;;;;;3.08;1.17;;;;;;;;;;7330295;19;162449;-19
2022/05/25 09:07:42;;;;;;;3.30;1.08;;;;;;;;;;7330451;19;154339;-19
2022/05/25 09:10:15;;;;;;;2.08;1.30;;;;;;;;;;7330010;19;153562;-19
2022/05/25 09:12:52;;;;;;;5.68;1.40;;;;;;;;;;7330767;19;161873;-18
2022/05/25 09:15:27;;;;;;;1.55;1.20;;;;;;;;;;7330771;19;162691;-16
2022/05/25 09:18:08;;;;;;;1.55;1.00;;;;;;;;;;7329762;19;132548;-18
2022/05/25 09:20:43;;;;;;;5.47;1.40;;;;;;;;;;7331117;19;153555;-18
2022/05/25 09:23:16;;;;;;;1.73;1.20;;;;;;;;;;7330870;19;161934;-18
2022/05/25 09:25:47;;;;;;;;;;;;;;;;;;7331180;19;162616;-19
2022/05/25 09:28:23;;;;;;;3.28;1.10;;;;;;;;;;7331140;19;154123;-18
2022/05/25 09:30:56;;;;;;;2.28;1.08;;;;;;;;;;7331008;19;153492;-18
2022/05/25 09:33:35;;;;;;;2.80;1.55;;;;;;;;;;7330516;19;161838;-19
2022/05/25 09:36:12;;;;;;;2.13;1.08;;;;;;;;;;7328736;19;162409;-21
2022/05/25 09:38:47;;;;;;;1.58;0.95;;;;;;;;;;7330761;19;154071;-19
2022/05/25 09:41:23;;;;;;;3.63;1.00;;;;;;;;;;7330655;19;153519;-18
2022/05/25 09:44:00;;;;;;;1.20;0.95;;;;;;;;;;7330073;19;161967;-18
2022/05/25 09:46:34;;;;;;;3.63;1.33;;;;;;;;;;7330104;19;162676;-18
2022/05/25 09:49:08;;;;;;;2.63;1.20;;;;;;;;;;7330476;19;154071;-18
2022/05/25 09:51:46;;;;;;;1.63;0.80;;;;;;;;;;7330397;19;153532;-16
2022/05/25 09:54:23;;;;;;;3.95;1.60;;;;;;;;;;7328641;19;161769;-16
2022/05/25 09:56:58;;;;;;;2.00;1.20;;;;;;;;;;7328662;19;162316;-19
2022/05/25 09:59:35;;;;;;;1.63;1.30;;;;;;;;;;7329823;19;154306;-19
2022/05/25 10:02:26;;;;;;;2.05;1.20;;;;;;;;;;7329637;19;153371;-18
2022/05/25 10:04:59;;;;;;;3.80;1.35;;;;;;;;;;7329522;19;161786;-19
2022/05/25 10:07:33;;;;;;;1.20;0.90;;;;;;;;;;7329405;19;162398;-18
2022/05/25 10:10:09;;;;;;;4.85;1.27;;;;;;;;;;7328908;19;154294;-19
2022/05/25 10:12:45;;;;;;;2.95;1.10;;;;;;;;;;7329653;19;153994;-19
2022/05/25 10:15:33;;;;;;;2.45;1.27;;;;;;;;;;7328762;19;162119;-19
2022/05/25 10:18:05;;;;;;;2.03;1.05;;;;;;;;;;7327118;19;162521;-17
2022/05/25 10:20:48;;;;;;;2.22;1.10;;;;;;;;;;7329294;19;154042;-19
2022/05/25 10:23:23;;;;;;;;;;;;;;;;;;7328659;19;153658;-19
2022/05/25 10:25:57;;;;;;;1.35;0.88;;;;;;;;;;7328746;19;162170;-19
2022/05/25 10:28:34;;;;;;;1.73;1.10;;;;;;;;;;7328902;19;162491;-18
2022/05/25 10:36:56;;;;;;;5.20;1.90;;;;;;;;;;7327939;19;161737;-18
2022/05/25 10:39:35;;;;;;;5.53;1.15;;;;;;;;;;7328174;19;162349;-18
2022/05/25 10:42:15;;;;;;;4.25;1.13;;;;;;;;;;7328026;19;154370;-18
2022/05/25 10:44:55;;;;;;;3.00;1.00;;;;;;;;;;7331522;19;153464;-18
2022/05/25 10:47:46;;;;;;;2.92;1.40;;;;;;;;;;7331028;19;161940;-18
2022/05/25 10:50:23;;;;;;;5.18;1.50;;;;;;;;;;7331514;19;162331;-17
2022/05/25 10:52:59;;;;;;;4.35;1.10;;;;;;;;;;7328482;19;154320;-18
2022/05/25 10:55:34;;;;;;;3.63;0.90;;;;;;;;;;7331104;19;153597;-17
2022/05/25 10:58:27;;;;;;;6.18;1.02;;;;;;;;;;7330524;19;161855;-18
2022/05/25 11:01:09;;;;;;;6.20;1.30;;;;;;;;;;7327197;19;162139;-18
2022/05/25 11:04:08;;;;;;;2.50;1.10;;;;;;;;;;7327352;19;154284;-18
2022/05/25 11:06:58;;;;;;;4.43;1.25;;;;;;;;;;7330095;19;153673;-17
2022/05/25 11:09:44;;;;;;;1.50;1.10;;;;;;;;;;7331748;19;161915;-18
2022/05/25 11:12:26;;;;;;;7.53;1.17;;;;;;;;;;7325971;19;162436;-18
2022/05/25 11:15:13;;;;;;;4.88;1.27;;;;;;;;;;7330475;19;154066;-18
2022/05/25 11:18:00;;;;;;;1.40;0.90;;;;;;;;;;7328794;19;153723;-19
2022/05/25 11:20:40;;;;;;;2.60;1.13;;;;;;;;;;7328643;19;162030;-17
2022/05/25 11:23:34;;;;;;;3.28;0.90;;;;;;;;;;7330508;19;162590;-17
2022/05/25 11:26:33;;;;;;;3.05;1.20;;;;;;;;;;7331183;19;154205;-17
2022/05/25 11:29:21;;;;;;;3.47;1.35;;;;;;;;;;7330813;19;153753;-17
2022/05/25 11:32:00;;;;;;;1.20;1.10;;;;;;;;;;7327210;19;161976;-17
2022/05/25 11:34:45;;;;;;;3.20;1.05;;;;;;;;;;7330602;19;162406;-17
2022/05/25 11:37:35;;;;;;;4.13;1.42;;;;;;;;;;7332810;19;154057;-17
2022/05/25 11:40:15;;;;;;;1.73;1.05;;;;;;;;;;7336102;19;153566;-17
2022/05/25 11:43:03;;;;;;;1.85;1.10;;;;;;;;;;7327493;19;162809;-18
2022/05/25 11:45:46;;;;;;;3.17;1.20;;;;;;;;;;7333307;19;162488;-17
2022/05/25 11:48:37;;;;;;;1.20;0.93;;;;;;;;;;7333378;19;154122;-17
2022/05/25 11:51:21;;;;;;;5.40;1.40;;;;;;;;;;7333482;19;153008;-18
2022/05/25 11:54:10;;;;;;;6.25;1.70;;;;;;;;;;7333009;19;161720;-18
2022/05/25 11:56:54;;;;;;;4.25;1.30;;;;;;;;;;7332826;19;162600;-18
2022/05/25 12:00:04;;;;;;;2.75;1.42;;;;;;;;;;7331161;19;154921;-17
2022/05/25 12:02:56;;;;;;;4.05;1.13;;;;;;;;;;7332981;19;153761;-17
2022/05/25 12:05:35;;;;;;;2.35;1.10;;;;;;;;;;7332562;19;161843;-18
2022/05/25 12:08:21;;;;;;;3.28;1.20;;;;;;;;;;7332580;19;162531;-18
2022/05/25 12:11:03;;;;;;;3.83;1.25;;;;;;;;;;7331030;19;153992;-17
2022/05/25 12:13:41;;;;;;;1.65;1.05;;;;;;;;;;7332693;19;153615;-17
2022/05/25 12:16:18;;;;;;;2.63;1.20;;;;;;;;;;7332061;19;162165;-17
2022/05/25 12:18:59;;;;;;;2.63;1.05;;;;;;;;;;7330827;19;162931;-18
2022/05/25 12:21:36;;;;;;;2.58;1.02;;;;;;;;;;7335360;19;154078;-18
2022/05/25 12:24:13;;;;;;;1.92;0.95;;;;;;;;;;7332131;19;154032;-17
2022/05/25 12:26:47;;;;;;;3.22;1.30;;;;;;;;;;7332157;19;162035;-18
2022/05/25 12:29:24;;;;;;;1.90;1.45;;;;;;;;;;7331903;19;162403;-18
2022/05/25 12:31:58;;;;;;;6.70;1.17;;;;;;;;;;7332406;19;154175;-17
2022/05/25 12:34:34;;;;;;;3.45;1.00;;;;;;;;;;7332170;19;153562;-17
2022/05/25 12:37:07;;;;;;;3.28;0.90;;;;;;;;;;7334853;19;161781;-25
2022/05/25 12:40:02;;;;;;;2.53;0.95;;;;;;;;;;7329291;19;162466;-18
2022/05/25 12:42:54;;;;;;;2.78;1.10;;;;;;;;;;7332219;19;154183;-17
2022/05/25 12:48:40;;;;;;;2.78;0.95;;;;;;;;;;7331886;19;162111;-18
2022/05/25 12:51:27;;;;;;;2.88;0.90;;;;;;;;;;7330481;19;162675;-17
2022/05/25 12:54:05;;;;;;;1.33;0.95;;;;;;;;;;7332232;19;154537;-17
2022/05/25 12:56:39;;;;;;;2.95;0.77;;;;;;;;;;7332169;19;153492;-18
2022/05/25 12:59:15;;;;;;;3.60;1.30;;;;;;;;;;7330531;19;161979;-17
2022/05/25 13:02:27;;;;;;;1.92;0.80;;;;;;;;;;7331248;19;162804;-18
2022/05/25 13:04:59;;;;;;;2.83;0.95;;;;;;;;;;7331987;19;154031;-17
2022/05/25 13:07:45;;;;;;;2.28;1.00;;;;;;;;;;7331497;19;153575;-17
2022/05/25 13:11:09;;;;;;;0.80;0.70;;;;;;;;;;7330500;19;161784;-17
2022/05/25 13:13:45;;;;;;;2.30;0.90;;;;;;;;;;7330185;19;162724;-17
2022/05/25 13:16:48;;;;;;;2.20;0.75;;;;;;;;;;7331353;19;154755;-17
2022/05/25 13:19:21;;;;;;;1.05;0.50;;;;;;;;;;7330355;19;153524;-17
2022/05/25 13:22:23;;;;;;;0.70;0.70;;;;;;;;;;7331041;19;161833;-17
2022/05/25 13:25:15;;;;;;;1.83;0.70;;;;;;;;;;7330685;19;163061;-19
2022/05/25 13:28:03;;;;;;;0.85;0.70;;;;;;;;;;7331005;19;154027;-17
2022/05/25 13:31:03;;;;;;;2.83;1.17;;;;;;;;;;7331000;19;153594;-16
2022/05/25 13:33:43;;;;;;;2.95;0.70;;;;;;;;;;7328529;19;162063;-17
2022/05/25 13:36:19;;;;;;;2.45;1.27;;;;;;;;;;7329228;19;162433;-16
2022/05/25 13:38:56;;;;;;;3.75;1.00;;;;;;;;;;7330610;19;154214;-17
2022/05/25 13:41:32;;;;;;;2.40;1.10;;;;;;;;;;7330499;19;153585;-17
2022/05/25 13:44:10;;;;;;;2.28;1.13;;;;;;;;;;7330261;19;161881;-17
2022/05/25 13:46:54;;;;;;;3.50;0.93;;;;;;;;;;7330381;19;162622;-17
2022/05/25 13:49:31;;;;;;;1.60;0.90;;;;;;;;;;7330425;19;154067;-18
2022/05/25 13:52:19;;;;;;;2.50;0.90;;;;;;;;;;7330786;19;153537;-18
2022/05/25 13:54:54;;;;;;;1.63;0.70;;;;;;;;;;7329163;19;161920;-18
2022/05/25 13:57:34;;;;;;;1.13;0.80;;;;;;;;;;7327178;19;162668;-17
2022/05/25 14:00:17;;;;;;;2.47;0.82;;;;;;;;;;7327419;19;154031;-17
2022/05/25 14:02:56;;;;;;;1.70;0.90;;;;;;;;;;7330022;19;154162;-17
2022/05/25 14:05:52;;;;;;;1.23;0.90;;;;;;;;;;7329386;19;161931;-18
2022/05/25 14:10:54;;;;;;;1.45;0.70;;;;;;;;;;7329102;19;162408;-18
2022/05/25 14:11:18;;;;;;;2.13;0.80;;;;;;;;;;7327752;19;154250;-18
2022/05/25 14:13:51;;;;;;;2.80;0.70;;;;;;;;;;7329611;19;153501;-17
2022/05/25 14:16:23;;;;;;;1.45;0.75;;;;;;;;;;7328081;19;162528;-17
2022/05/25 14:18:59;;;;;;;1.17;0.93;;;;;;;;;;7328951;19;162663;-18
2022/05/25 14:21:37;;;;;;;2.20;0.88;;;;;;;;;;7325190;19;154019;-18
2022/05/25 14:24:12;;;;;;;2.35;0.75;;;;;;;;;;7330010;19;153545;-18
2022/05/25 14:26:48;;;;;;;1.63;0.88;;;;;;;;;;7328702;19;161794;-17
2022/05/25 14:29:24;;;;;;;2.85;1.00;;;;;;;;;;7328623;19;162295;-18
2022/05/25 14:31:57;;;;;;;1.27;0.55;;;;;;;;;;7328779;19;154142;-18
2022/05/25 14:34:41;;;;;;;3.42;0.90;;;;;;;;;;7328830;19;153221;-18
2022/05/25 14:37:13;;;;;;;3.47;0.90;;;;;;;;;;7328486;19;162111;-17
2022/05/25 14:39:47;;;;;;;2.35;0.80;;;;;;;;;;7327535;19;162685;-18
2022/05/25 14:42:21;;;;;;;1.42;0.75;;;;;;;;;;7329013;19;154138;-18
2022/05/25 14:44:54;;;;;;;2.20;0.90;;;;;;;;;;7328647;19;153786;-18
2022/05/25 14:47:30;;;;;;;;;;;;;;;;;;7327586;19;161904;-17
2022/05/25 14:50:21;;;;;;;1.95;0.88;;;;;;;;;;7328160;19;162498;-17
2022/05/25 14:53:00;;;;;;;2.53;0.63;;;;;;;;;;7328455;19;154037;-17
2022/05/25 14:55:34;;;;;;;2.50;0.98;;;;;;;;;;7328318;19;153772;-17
2022/05/25 14:58:13;;;;;;;1.80;0.77;;;;;;;;;;7327902;19;161836;-17
2022/05/25 15:00:47;;;;;;;2.15;0.98;;;;;;;;;;7326308;19;162457;-17
2022/05/25 15:03:35;;;;;;;1.77;0.90;;;;;;;;;;7328215;19;153933;-18
2022/05/25 15:06:12;;;;;;;2.85;0.88;;;;;;;;;;7326730;19;153707;-18
2022/05/25 15:08:46;;;;;;;2.25;0.88;;;;;;;;;;7327802;19;161840;-17
2022/05/25 15:11:22;;;;;;;2.35;1.02;;;;;;;;;;7332881;19;162631;-18
2022/05/25 15:19:44;;;;;;;1.30;0.80;;;;;;;;;;7334132;19;161948;-17
2022/05/25 15:22:22;;;;;;;2.05;0.75;;;;;;;;;;7334149;19;162574;-17
2022/05/25 15:25:01;;;;;;;1.00;0.68;;;;;;;;;;7334306;19;154144;-17
2022/05/25 15:27:39;;;;;;;1.83;0.70;;;;;;;;;;7334182;19;153530;-17
2022/05/25 15:30:27;;;;;;;1.27;0.60;;;;;;;;;;7333792;19;161830;-18
2022/05/25 15:32:58;;;;;;;2.13;1.00;;;;;;;;;;7333486;19;162569;-18
2022/05/25 15:35:30;;;;;;;1.52;0.77;;;;;;;;;;7335245;19;154085;-17
2022/05/25 15:38:08;;;;;;;6.03;0.70;;;;;;;;;;7333860;19;153733;-18
2022/05/25 15:40:43;;;;;;;1.73;0.70;;;;;;;;;;7332755;19;162084;-17
2022/05/25 15:43:14;;;;;;;1.48;0.65;;;;;;;;;;7333293;19;162552;-18
2022/05/25 15:45:47;;;;;;;3.20;1.38;;;;;;;;;;7333708;19;154126;-17
2022/05/25 15:48:21;;;;;;;0.70;0.55;;;;;;;;;;7333515;19;153673;-17
2022/05/25 15:50:54;;;;;;;0.95;0.70;;;;;;;;;;7333171;19;161861;-17
2022/05/25 15:53:28;;;;;;;1.75;0.68;;;;;;;;;;7332981;19;162525;-17